sensor_id;sensor_type;location;lat;lon;timestamp;P1;durP1;ratioP1;P2;durP2;ratioP2
66189;SDS011;52992;52.084;5.412;2023-07-20T00:01:19;5.87;;;4.60;;
66189;SDS011;52992;52.084;5.412;2023-07-20T00:03:46;5.47;;;4.20;;
66189;SDS011;52992;52.084;5.412;2023-07-20T00:06:24;9.70;;;4.70;;
66189;SDS011;52992;52.084;5.412;2023-07-20T00:08:54;5.37;;;4.57;;
66189;SDS011;52992;52.084;5.412;2023-07-20T00:11:27;7.00;;;4.83;;
66189;SDS011;52992;52.084;5.412;2023-07-20T00:13:54;6.63;;;4.80;;
66189;SDS011;52992;52.084;5.412;2023-07-20T00:16:21;6.03;;;4.90;;
66189;SDS011;52992;52.084;5.412;2023-07-20T00:18:49;5.17;;;4.03;;
66189;SDS011;52992;52.084;5.412;2023-07-20T00:21:15;7.10;;;4.43;;
66189;SDS011;52992;52.084;5.412;2023-07-20T00:23:42;4.30;;;3.90;;
66189;SDS011;52992;52.084;5.412;2023-07-20T00:26:09;3.77;;;3.27;;
66189;SDS011;52992;52.084;5.412;2023-07-20T00:28:36;4.73;;;3.67;;
66189;SDS011;52992;52.084;5.412;2023-07-20T00:31:04;4.83;;;3.37;;
66189;SDS011;52992;52.084;5.412;2023-07-20T00:33:31;5.93;;;3.50;;
66189;SDS011;52992;52.084;5.412;2023-07-20T00:35:58;4.47;;;3.30;;
66189;SDS011;52992;52.084;5.412;2023-07-20T00:38:25;2.97;;;2.63;;
66189;SDS011;52992;52.084;5.412;2023-07-20T00:40:52;3.37;;;2.90;;
66189;SDS011;52992;52.084;5.412;2023-07-20T00:43:19;3.53;;;2.60;;
66189;SDS011;52992;52.084;5.412;2023-07-20T00:45:46;3.03;;;2.40;;
66189;SDS011;52992;52.084;5.412;2023-07-20T00:48:13;3.30;;;2.30;;
66189;SDS011;52992;52.084;5.412;2023-07-20T00:50:42;3.40;;;2.50;;
66189;SDS011;52992;52.084;5.412;2023-07-20T00:53:09;2.33;;;2.13;;
66189;SDS011;52992;52.084;5.412;2023-07-20T00:55:36;2.20;;;1.87;;
66189;SDS011;52992;52.084;5.412;2023-07-20T00:58:03;2.30;;;2.10;;
66189;SDS011;52992;52.084;5.412;2023-07-20T01:00:31;2.77;;;1.83;;
66189;SDS011;52992;52.084;5.412;2023-07-20T01:02:58;2.80;;;2.00;;
66189;SDS011;52992;52.084;5.412;2023-07-20T01:05:28;4.73;;;2.37;;
66189;SDS011;52992;52.084;5.412;2023-07-20T01:11:02;2.60;;;2.33;;
66189;SDS011;52992;52.084;5.412;2023-07-20T01:13:37;2.53;;;2.10;;
66189;SDS011;52992;52.084;5.412;2023-07-20T01:16:05;2.30;;;1.77;;
66189;SDS011;52992;52.084;5.412;2023-07-20T01:18:32;2.07;;;1.93;;
66189;SDS011;52992;52.084;5.412;2023-07-20T01:21:00;2.47;;;2.13;;
66189;SDS011;52992;52.084;5.412;2023-07-20T01:23:46;2.20;;;2.00;;
66189;SDS011;52992;52.084;5.412;2023-07-20T01:26:48;2.30;;;2.10;;
66189;SDS011;52992;52.084;5.412;2023-07-20T01:32:33;1.90;;;1.80;;
66189;SDS011;52992;52.084;5.412;2023-07-20T01:35:03;2.40;;;2.20;;
66189;SDS011;52992;52.084;5.412;2023-07-20T01:37:33;2.70;;;2.20;;
66189;SDS011;52992;52.084;5.412;2023-07-20T01:40:01;2.30;;;2.07;;
66189;SDS011;52992;52.084;5.412;2023-07-20T01:42:28;2.37;;;2.17;;
66189;SDS011;52992;52.084;5.412;2023-07-20T01:44:55;3.17;;;2.17;;
66189;SDS011;52992;52.084;5.412;2023-07-20T01:47:23;2.13;;;2.00;;
66189;SDS011;52992;52.084;5.412;2023-07-20T01:49:50;2.70;;;2.30;;
66189;SDS011;52992;52.084;5.412;2023-07-20T01:52:16;2.57;;;2.37;;
66189;SDS011;52992;52.084;5.412;2023-07-20T01:54:43;4.43;;;2.47;;
66189;SDS011;52992;52.084;5.412;2023-07-20T01:57:11;2.20;;;2.10;;
66189;SDS011;52992;52.084;5.412;2023-07-20T01:59:38;3.27;;;2.30;;
66189;SDS011;52992;52.084;5.412;2023-07-20T02:02:05;2.30;;;2.10;;
66189;SDS011;52992;52.084;5.412;2023-07-20T02:04:32;3.53;;;2.30;;
66189;SDS011;52992;52.084;5.412;2023-07-20T02:06:59;3.10;;;2.17;;
66189;SDS011;52992;52.084;5.412;2023-07-20T02:09:26;2.50;;;2.30;;
66189;SDS011;52992;52.084;5.412;2023-07-20T02:11:53;2.13;;;1.97;;
66189;SDS011;52992;52.084;5.412;2023-07-20T02:14:20;2.30;;;2.03;;
66189;SDS011;52992;52.084;5.412;2023-07-20T02:16:49;2.20;;;2.00;;
66189;SDS011;52992;52.084;5.412;2023-07-20T02:19:20;2.30;;;2.10;;
66189;SDS011;52992;52.084;5.412;2023-07-20T02:21:48;2.43;;;2.10;;
66189;SDS011;52992;52.084;5.412;2023-07-20T02:24:15;2.57;;;2.20;;
66189;SDS011;52992;52.084;5.412;2023-07-20T02:26:41;2.33;;;2.10;;
66189;SDS011;52992;52.084;5.412;2023-07-20T02:29:09;2.07;;;1.97;;
66189;SDS011;52992;52.084;5.412;2023-07-20T02:31:37;2.50;;;2.10;;
66189;SDS011;52992;52.084;5.412;2023-07-20T02:34:06;2.53;;;2.23;;
66189;SDS011;52992;52.084;5.412;2023-07-20T02:36:33;2.17;;;2.00;;
66189;SDS011;52992;52.084;5.412;2023-07-20T02:39:01;2.43;;;2.00;;
66189;SDS011;52992;52.084;5.412;2023-07-20T02:41:32;2.00;;;1.90;;
66189;SDS011;52992;52.084;5.412;2023-07-20T02:44:00;3.23;;;2.20;;
66189;SDS011;52992;52.084;5.412;2023-07-20T02:46:28;2.33;;;2.13;;
66189;SDS011;52992;52.084;5.412;2023-07-20T02:48:57;2.00;;;1.90;;
66189;SDS011;52992;52.084;5.412;2023-07-20T02:51:24;2.30;;;2.10;;
66189;SDS011;52992;52.084;5.412;2023-07-20T02:53:51;2.43;;;2.10;;
66189;SDS011;52992;52.084;5.412;2023-07-20T02:56:18;2.50;;;2.30;;
66189;SDS011;52992;52.084;5.412;2023-07-20T02:58:45;2.63;;;2.43;;
66189;SDS011;52992;52.084;5.412;2023-07-20T03:01:12;3.10;;;2.27;;
66189;SDS011;52992;52.084;5.412;2023-07-20T03:03:42;3.07;;;2.77;;
66189;SDS011;52992;52.084;5.412;2023-07-20T03:06:13;3.63;;;3.20;;
66189;SDS011;52992;52.084;5.412;2023-07-20T03:08:42;4.30;;;3.90;;
66189;SDS011;52992;52.084;5.412;2023-07-20T03:11:14;3.70;;;3.20;;
66189;SDS011;52992;52.084;5.412;2023-07-20T03:13:42;2.90;;;2.60;;
66189;SDS011;52992;52.084;5.412;2023-07-20T03:16:10;3.37;;;2.40;;
66189;SDS011;52992;52.084;5.412;2023-07-20T03:18:41;3.37;;;2.20;;
66189;SDS011;52992;52.084;5.412;2023-07-20T03:21:09;2.40;;;2.13;;
66189;SDS011;52992;52.084;5.412;2023-07-20T03:23:40;2.33;;;2.13;;
66189;SDS011;52992;52.084;5.412;2023-07-20T03:26:09;2.60;;;2.40;;
66189;SDS011;52992;52.084;5.412;2023-07-20T03:28:37;2.70;;;2.50;;
66189;SDS011;52992;52.084;5.412;2023-07-20T03:31:05;2.57;;;2.37;;
66189;SDS011;52992;52.084;5.412;2023-07-20T03:33:36;2.20;;;2.10;;
66189;SDS011;52992;52.084;5.412;2023-07-20T03:36:04;2.43;;;2.23;;
66189;SDS011;52992;52.084;5.412;2023-07-20T03:38:31;2.80;;;2.20;;
66189;SDS011;52992;52.084;5.412;2023-07-20T03:41:00;2.13;;;2.00;;
66189;SDS011;52992;52.084;5.412;2023-07-20T03:43:27;2.67;;;2.40;;
66189;SDS011;52992;52.084;5.412;2023-07-20T03:45:55;3.30;;;2.63;;
66189;SDS011;52992;52.084;5.412;2023-07-20T03:48:24;3.10;;;2.50;;
66189;SDS011;52992;52.084;5.412;2023-07-20T03:50:52;2.70;;;2.50;;
66189;SDS011;52992;52.084;5.412;2023-07-20T03:53:20;2.80;;;2.50;;
66189;SDS011;52992;52.084;5.412;2023-07-20T03:55:49;2.53;;;2.33;;
66189;SDS011;52992;52.084;5.412;2023-07-20T03:58:17;3.83;;;2.90;;
66189;SDS011;52992;52.084;5.412;2023-07-20T04:00:47;4.27;;;2.50;;
66189;SDS011;52992;52.084;5.412;2023-07-20T04:03:19;2.90;;;2.60;;
66189;SDS011;52992;52.084;5.412;2023-07-20T04:05:47;2.83;;;2.43;;
66189;SDS011;52992;52.084;5.412;2023-07-20T04:08:14;3.07;;;2.40;;
66189;SDS011;52992;52.084;5.412;2023-07-20T04:10:45;2.77;;;2.33;;
66189;SDS011;52992;52.084;5.412;2023-07-20T04:13:12;2.93;;;2.30;;
66189;SDS011;52992;52.084;5.412;2023-07-20T04:15:39;2.90;;;2.60;;
66189;SDS011;52992;52.084;5.412;2023-07-20T04:18:06;2.47;;;2.27;;
66189;SDS011;52992;52.084;5.412;2023-07-20T04:20:33;2.60;;;2.40;;
66189;SDS011;52992;52.084;5.412;2023-07-20T04:23:00;3.63;;;3.00;;
66189;SDS011;52992;52.084;5.412;2023-07-20T04:25:28;3.23;;;2.93;;
66189;SDS011;52992;52.084;5.412;2023-07-20T04:27:57;3.10;;;2.60;;
66189;SDS011;52992;52.084;5.412;2023-07-20T04:30:24;3.13;;;2.80;;
66189;SDS011;52992;52.084;5.412;2023-07-20T04:32:51;3.27;;;2.97;;
66189;SDS011;52992;52.084;5.412;2023-07-20T04:38:22;3.67;;;2.83;;
66189;SDS011;52992;52.084;5.412;2023-07-20T04:41:00;2.63;;;2.43;;
66189;SDS011;52992;52.084;5.412;2023-07-20T04:43:31;3.43;;;2.67;;
66189;SDS011;52992;52.084;5.412;2023-07-20T04:45:59;2.80;;;2.60;;
66189;SDS011;52992;52.084;5.412;2023-07-20T04:48:27;3.77;;;3.40;;
66189;SDS011;52992;52.084;5.412;2023-07-20T04:50:55;3.30;;;3.00;;
66189;SDS011;52992;52.084;5.412;2023-07-20T04:53:24;4.27;;;3.60;;
66189;SDS011;52992;52.084;5.412;2023-07-20T04:55:51;4.10;;;3.10;;
66189;SDS011;52992;52.084;5.412;2023-07-20T04:58:22;5.60;;;3.33;;
66189;SDS011;52992;52.084;5.412;2023-07-20T05:00:51;3.90;;;3.30;;
66189;SDS011;52992;52.084;5.412;2023-07-20T05:03:19;6.77;;;3.90;;
66189;SDS011;52992;52.084;5.412;2023-07-20T05:05:47;4.13;;;3.47;;
66189;SDS011;52992;52.084;5.412;2023-07-20T05:08:16;4.17;;;3.60;;
66189;SDS011;52992;52.084;5.412;2023-07-20T05:10:43;6.17;;;4.17;;
66189;SDS011;52992;52.084;5.412;2023-07-20T05:13:10;4.10;;;3.70;;
66189;SDS011;52992;52.084;5.412;2023-07-20T05:15:37;4.17;;;3.77;;
66189;SDS011;52992;52.084;5.412;2023-07-20T05:18:08;4.40;;;3.90;;
66189;SDS011;52992;52.084;5.412;2023-07-20T05:20:35;6.17;;;3.90;;
66189;SDS011;52992;52.084;5.412;2023-07-20T05:23:03;7.53;;;4.10;;
66189;SDS011;52992;52.084;5.412;2023-07-20T05:25:30;5.57;;;3.93;;
66189;SDS011;52992;52.084;5.412;2023-07-20T05:27:57;4.80;;;3.70;;
66189;SDS011;52992;52.084;5.412;2023-07-20T05:30:24;4.13;;;3.73;;
66189;SDS011;52992;52.084;5.412;2023-07-20T05:32:52;4.03;;;3.63;;
66189;SDS011;52992;52.084;5.412;2023-07-20T05:35:21;5.33;;;4.43;;
66189;SDS011;52992;52.084;5.412;2023-07-20T05:37:48;3.67;;;3.03;;
66189;SDS011;52992;52.084;5.412;2023-07-20T05:40:16;4.23;;;3.60;;
66189;SDS011;52992;52.084;5.412;2023-07-20T05:42:47;4.80;;;4.00;;
66189;SDS011;52992;52.084;5.412;2023-07-20T05:45:15;4.03;;;3.63;;
66189;SDS011;52992;52.084;5.412;2023-07-20T05:47:42;3.80;;;3.40;;
66189;SDS011;52992;52.084;5.412;2023-07-20T05:50:09;3.90;;;3.50;;
66189;SDS011;52992;52.084;5.412;2023-07-20T05:52:37;4.50;;;3.60;;
66189;SDS011;52992;52.084;5.412;2023-07-20T05:55:05;3.33;;;2.97;;
66189;SDS011;52992;52.084;5.412;2023-07-20T05:57:33;3.13;;;2.90;;
66189;SDS011;52992;52.084;5.412;2023-07-20T06:00:02;4.13;;;3.10;;
66189;SDS011;52992;52.084;5.412;2023-07-20T06:02:37;3.10;;;2.80;;
66189;SDS011;52992;52.084;5.412;2023-07-20T06:05:04;3.50;;;3.13;;
66189;SDS011;52992;52.084;5.412;2023-07-20T06:07:33;3.37;;;3.07;;
66189;SDS011;52992;52.084;5.412;2023-07-20T06:10:00;5.30;;;3.23;;
66189;SDS011;52992;52.084;5.412;2023-07-20T06:12:28;3.17;;;2.87;;
66189;SDS011;52992;52.084;5.412;2023-07-20T06:14:55;4.43;;;2.77;;
66189;SDS011;52992;52.084;5.412;2023-07-20T06:17:22;3.37;;;3.07;;
66189;SDS011;52992;52.084;5.412;2023-07-20T06:19:49;3.13;;;2.83;;
66189;SDS011;52992;52.084;5.412;2023-07-20T06:22:17;3.13;;;2.83;;
66189;SDS011;52992;52.084;5.412;2023-07-20T06:24:44;4.57;;;3.47;;
66189;SDS011;52992;52.084;5.412;2023-07-20T06:27:11;3.33;;;2.97;;
66189;SDS011;52992;52.084;5.412;2023-07-20T06:29:39;3.27;;;2.93;;
66189;SDS011;52992;52.084;5.412;2023-07-20T06:32:06;3.27;;;2.70;;
66189;SDS011;52992;52.084;5.412;2023-07-20T06:34:34;2.33;;;2.13;;
66189;SDS011;52992;52.084;5.412;2023-07-20T06:37:04;2.60;;;2.40;;
66189;SDS011;52992;52.084;5.412;2023-07-20T06:39:31;3.47;;;2.83;;
66189;SDS011;52992;52.084;5.412;2023-07-20T06:42:01;2.93;;;2.50;;
66189;SDS011;52992;52.084;5.412;2023-07-20T06:44:29;2.40;;;2.00;;
66189;SDS011;52992;52.084;5.412;2023-07-20T06:46:56;3.03;;;2.20;;
66189;SDS011;52992;52.084;5.412;2023-07-20T06:49:24;1.93;;;1.73;;
66189;SDS011;52992;52.084;5.412;2023-07-20T06:51:54;1.60;;;1.50;;
66189;SDS011;52992;52.084;5.412;2023-07-20T06:54:25;1.37;;;1.27;;
66189;SDS011;52992;52.084;5.412;2023-07-20T06:56:53;1.47;;;1.37;;
66189;SDS011;52992;52.084;5.412;2023-07-20T06:59:23;1.67;;;1.57;;
66189;SDS011;52992;52.084;5.412;2023-07-20T07:01:51;1.83;;;1.73;;
66189;SDS011;52992;52.084;5.412;2023-07-20T07:04:18;1.60;;;1.50;;
66189;SDS011;52992;52.084;5.412;2023-07-20T07:06:45;1.70;;;1.60;;
66189;SDS011;52992;52.084;5.412;2023-07-20T07:09:12;2.47;;;2.00;;
66189;SDS011;52992;52.084;5.412;2023-07-20T07:11:40;2.20;;;2.00;;
66189;SDS011;52992;52.084;5.412;2023-07-20T07:14:07;3.57;;;1.63;;
66189;SDS011;52992;52.084;5.412;2023-07-20T07:16:34;1.33;;;1.20;;
66189;SDS011;52992;52.084;5.412;2023-07-20T07:19:04;2.83;;;1.50;;
66189;SDS011;52992;52.084;5.412;2023-07-20T07:21:32;1.43;;;1.33;;
66189;SDS011;52992;52.084;5.412;2023-07-20T07:23:59;1.27;;;1.20;;
66189;SDS011;52992;52.084;5.412;2023-07-20T07:26:26;1.67;;;1.23;;
66189;SDS011;52992;52.084;5.412;2023-07-20T07:28:53;1.70;;;1.17;;
66189;SDS011;52992;52.084;5.412;2023-07-20T07:31:21;1.53;;;1.27;;
66189;SDS011;52992;52.084;5.412;2023-07-20T07:33:49;1.37;;;1.27;;
66189;SDS011;52992;52.084;5.412;2023-07-20T07:36:16;1.97;;;1.60;;
66189;SDS011;52992;52.084;5.412;2023-07-20T07:38:43;2.13;;;1.30;;
66189;SDS011;52992;52.084;5.412;2023-07-20T07:41:13;1.40;;;1.30;;
66189;SDS011;52992;52.084;5.412;2023-07-20T07:43:41;1.23;;;1.13;;
66189;SDS011;52992;52.084;5.412;2023-07-20T07:46:08;1.53;;;1.27;;
66189;SDS011;52992;52.084;5.412;2023-07-20T07:48:35;1.50;;;1.30;;
66189;SDS011;52992;52.084;5.412;2023-07-20T07:51:02;1.60;;;1.40;;
66189;SDS011;52992;52.084;5.412;2023-07-20T07:53:30;1.70;;;1.40;;
66189;SDS011;52992;52.084;5.412;2023-07-20T07:55:57;1.33;;;1.23;;
66189;SDS011;52992;52.084;5.412;2023-07-20T07:58:24;1.40;;;1.30;;
66189;SDS011;52992;52.084;5.412;2023-07-20T08:00:52;4.20;;;1.40;;
66189;SDS011;52992;52.084;5.412;2023-07-20T08:03:19;1.40;;;1.30;;
66189;SDS011;52992;52.084;5.412;2023-07-20T08:05:47;3.27;;;1.40;;
66189;SDS011;52992;52.084;5.412;2023-07-20T08:08:14;1.60;;;1.20;;
66189;SDS011;52992;52.084;5.412;2023-07-20T08:10:41;2.00;;;1.20;;
66189;SDS011;52992;52.084;5.412;2023-07-20T08:13:08;1.13;;;1.03;;
66189;SDS011;52992;52.084;5.412;2023-07-20T08:15:35;2.03;;;1.40;;
66189;SDS011;52992;52.084;5.412;2023-07-20T08:18:03;1.40;;;1.00;;
66189;SDS011;52992;52.084;5.412;2023-07-20T08:20:32;1.00;;;0.57;;
66189;SDS011;52992;52.084;5.412;2023-07-20T08:23:02;1.43;;;1.33;;
66189;SDS011;52992;52.084;5.412;2023-07-20T08:25:29;2.33;;;0.77;;
66189;SDS011;52992;52.084;5.412;2023-07-20T08:27:57;1.37;;;0.97;;
66189;SDS011;52992;52.084;5.412;2023-07-20T08:30:24;0.93;;;0.93;;
66189;SDS011;52992;52.084;5.412;2023-07-20T08:32:51;1.03;;;0.93;;
66189;SDS011;52992;52.084;5.412;2023-07-20T08:35:18;1.17;;;0.97;;
66189;SDS011;52992;52.084;5.412;2023-07-20T08:37:48;1.23;;;1.13;;
66189;SDS011;52992;52.084;5.412;2023-07-20T08:40:16;0.90;;;0.90;;
66189;SDS011;52992;52.084;5.412;2023-07-20T08:42:43;0.73;;;0.60;;
66189;SDS011;52992;52.084;5.412;2023-07-20T08:45:11;0.90;;;0.70;;
66189;SDS011;52992;52.084;5.412;2023-07-20T08:47:40;0.60;;;0.60;;
66189;SDS011;52992;52.084;5.412;2023-07-20T08:50:14;0.73;;;0.73;;
66189;SDS011;52992;52.084;5.412;2023-07-20T08:52:42;0.90;;;0.90;;
66189;SDS011;52992;52.084;5.412;2023-07-20T08:55:10;1.17;;;1.10;;
66189;SDS011;52992;52.084;5.412;2023-07-20T08:57:38;0.93;;;0.77;;
66189;SDS011;52992;52.084;5.412;2023-07-20T09:00:08;0.90;;;0.90;;
66189;SDS011;52992;52.084;5.412;2023-07-20T09:02:39;1.17;;;1.10;;
66189;SDS011;52992;52.084;5.412;2023-07-20T09:05:09;1.03;;;1.03;;
66189;SDS011;52992;52.084;5.412;2023-07-20T09:07:38;0.80;;;0.80;;
66189;SDS011;52992;52.084;5.412;2023-07-20T09:10:07;0.80;;;0.80;;
66189;SDS011;52992;52.084;5.412;2023-07-20T09:12:35;2.10;;;1.03;;
66189;SDS011;52992;52.084;5.412;2023-07-20T09:15:06;0.90;;;0.90;;
66189;SDS011;52992;52.084;5.412;2023-07-20T09:17:34;0.70;;;0.70;;
66189;SDS011;52992;52.084;5.412;2023-07-20T09:20:08;0.77;;;0.77;;
66189;SDS011;52992;52.084;5.412;2023-07-20T09:22:38;1.10;;;0.90;;
66189;SDS011;52992;52.084;5.412;2023-07-20T09:25:12;0.97;;;0.67;;
66189;SDS011;52992;52.084;5.412;2023-07-20T09:27:42;1.70;;;0.80;;
66189;SDS011;52992;52.084;5.412;2023-07-20T09:30:14;1.90;;;1.60;;
66189;SDS011;52992;52.084;5.412;2023-07-20T09:32:45;0.73;;;0.73;;
66189;SDS011;52992;52.084;5.412;2023-07-20T09:35:17;1.23;;;0.73;;
66189;SDS011;52992;52.084;5.412;2023-07-20T09:37:50;0.63;;;0.63;;
66189;SDS011;52992;52.084;5.412;2023-07-20T09:40:40;0.60;;;0.60;;
66189;SDS011;52992;52.084;5.412;2023-07-20T09:43:11;0.87;;;0.80;;
66189;SDS011;52992;52.084;5.412;2023-07-20T09:45:42;0.50;;;0.50;;
66189;SDS011;52992;52.084;5.412;2023-07-20T09:48:12;0.90;;;0.90;;
66189;SDS011;52992;52.084;5.412;2023-07-20T09:50:43;0.93;;;0.90;;
66189;SDS011;52992;52.084;5.412;2023-07-20T09:53:17;0.73;;;0.73;;
66189;SDS011;52992;52.084;5.412;2023-07-20T09:55:47;0.83;;;0.83;;
66189;SDS011;52992;52.084;5.412;2023-07-20T09:58:15;0.70;;;0.70;;
66189;SDS011;52992;52.084;5.412;2023-07-20T10:00:43;0.70;;;0.70;;
66189;SDS011;52992;52.084;5.412;2023-07-20T10:03:20;0.73;;;0.73;;
66189;SDS011;52992;52.084;5.412;2023-07-20T10:05:54;3.57;;;0.90;;
66189;SDS011;52992;52.084;5.412;2023-07-20T10:08:25;1.03;;;0.80;;
66189;SDS011;52992;52.084;5.412;2023-07-20T10:10:57;1.10;;;0.90;;
66189;SDS011;52992;52.084;5.412;2023-07-20T10:13:29;0.67;;;0.67;;
66189;SDS011;52992;52.084;5.412;2023-07-20T10:15:59;1.30;;;0.90;;
66189;SDS011;52992;52.084;5.412;2023-07-20T10:21:00;1.00;;;0.90;;
66189;SDS011;52992;52.084;5.412;2023-07-20T10:23:32;0.67;;;0.67;;
66189;SDS011;52992;52.084;5.412;2023-07-20T10:26:00;1.03;;;0.70;;
66189;SDS011;52992;52.084;5.412;2023-07-20T10:28:28;1.53;;;0.50;;
66189;SDS011;52992;52.084;5.412;2023-07-20T10:30:55;0.70;;;0.70;;
66189;SDS011;52992;52.084;5.412;2023-07-20T10:33:23;3.03;;;0.90;;
66189;SDS011;52992;52.084;5.412;2023-07-20T10:36:01;0.60;;;0.60;;
66189;SDS011;52992;52.084;5.412;2023-07-20T10:38:43;0.40;;;0.40;;
66189;SDS011;52992;52.084;5.412;2023-07-20T10:41:33;0.70;;;0.70;;
66189;SDS011;52992;52.084;5.412;2023-07-20T10:44:05;0.53;;;0.53;;
66189;SDS011;52992;52.084;5.412;2023-07-20T10:49:07;0.53;;;0.53;;
66189;SDS011;52992;52.084;5.412;2023-07-20T10:54:08;0.57;;;0.57;;
66189;SDS011;52992;52.084;5.412;2023-07-20T10:56:44;1.03;;;0.40;;
66189;SDS011;52992;52.084;5.412;2023-07-20T11:02:08;0.50;;;0.50;;
66189;SDS011;52992;52.084;5.412;2023-07-20T11:04:39;0.60;;;0.60;;
66189;SDS011;52992;52.084;5.412;2023-07-20T11:07:07;1.10;;;0.90;;
66189;SDS011;52992;52.084;5.412;2023-07-20T11:09:38;0.82;;;0.70;;
66189;SDS011;52992;52.084;5.412;2023-07-20T11:12:15;0.50;;;0.50;;
66189;SDS011;52992;52.084;5.412;2023-07-20T11:14:53;0.60;;;0.60;;
66189;SDS011;52992;52.084;5.412;2023-07-20T11:17:30;0.93;;;0.80;;
66189;SDS011;52992;52.084;5.412;2023-07-20T11:19:58;0.70;;;0.50;;
66189;SDS011;52992;52.084;5.412;2023-07-20T11:22:32;0.75;;;0.75;;
66189;SDS011;52992;52.084;5.412;2023-07-20T11:25:00;1.60;;;1.00;;
66189;SDS011;52992;52.084;5.412;2023-07-20T11:27:27;1.30;;;0.80;;
66189;SDS011;52992;52.084;5.412;2023-07-20T11:29:56;0.55;;;0.35;;
66189;SDS011;52992;52.084;5.412;2023-07-20T11:32:23;0.63;;;0.63;;
66189;SDS011;52992;52.084;5.412;2023-07-20T11:34:51;0.65;;;0.65;;
66189;SDS011;52992;52.084;5.412;2023-07-20T11:37:18;0.77;;;0.57;;
66189;SDS011;52992;52.084;5.412;2023-07-20T11:39:45;0.67;;;0.67;;
66189;SDS011;52992;52.084;5.412;2023-07-20T11:42:13;0.60;;;0.60;;
66189;SDS011;52992;52.084;5.412;2023-07-20T11:45:02;0.73;;;0.73;;
66189;SDS011;52992;52.084;5.412;2023-07-20T11:47:32;0.70;;;0.60;;
66189;SDS011;52992;52.084;5.412;2023-07-20T11:50:03;1.13;;;0.70;;
66189;SDS011;52992;52.084;5.412;2023-07-20T11:52:30;0.87;;;0.80;;
66189;SDS011;52992;52.084;5.412;2023-07-20T11:54:58;0.77;;;0.77;;
66189;SDS011;52992;52.084;5.412;2023-07-20T11:57:25;1.20;;;1.10;;
66189;SDS011;52992;52.084;5.412;2023-07-20T11:59:56;0.90;;;0.90;;
66189;SDS011;52992;52.084;5.412;2023-07-20T12:02:29;1.57;;;1.03;;
66189;SDS011;52992;52.084;5.412;2023-07-20T12:04:56;1.00;;;0.93;;
66189;SDS011;52992;52.084;5.412;2023-07-20T12:07:25;0.90;;;0.90;;
66189;SDS011;52992;52.084;5.412;2023-07-20T12:10:07;1.17;;;1.03;;
66189;SDS011;52992;52.084;5.412;2023-07-20T12:12:40;0.70;;;0.70;;
66189;SDS011;52992;52.084;5.412;2023-07-20T12:15:15;0.70;;;0.70;;
66189;SDS011;52992;52.084;5.412;2023-07-20T12:17:46;1.53;;;1.17;;
66189;SDS011;52992;52.084;5.412;2023-07-20T12:23:07;0.73;;;0.73;;
66189;SDS011;52992;52.084;5.412;2023-07-20T12:25:37;1.17;;;1.00;;
66189;SDS011;52992;52.084;5.412;2023-07-20T12:28:09;1.27;;;1.17;;
66189;SDS011;52992;52.084;5.412;2023-07-20T12:30:38;0.73;;;0.73;;
66189;SDS011;52992;52.084;5.412;2023-07-20T12:33:06;0.70;;;0.70;;
66189;SDS011;52992;52.084;5.412;2023-07-20T12:35:34;0.87;;;0.87;;
66189;SDS011;52992;52.084;5.412;2023-07-20T12:38:01;0.90;;;0.90;;
66189;SDS011;52992;52.084;5.412;2023-07-20T12:40:28;0.87;;;0.87;;
66189;SDS011;52992;52.084;5.412;2023-07-20T12:42:57;1.37;;;1.00;;
66189;SDS011;52992;52.084;5.412;2023-07-20T12:45:24;0.97;;;0.97;;
66189;SDS011;52992;52.084;5.412;2023-07-20T12:47:51;0.60;;;0.60;;
66189;SDS011;52992;52.084;5.412;2023-07-20T12:50:19;2.10;;;0.90;;
66189;SDS011;52992;52.084;5.412;2023-07-20T12:52:46;0.97;;;0.97;;
66189;SDS011;52992;52.084;5.412;2023-07-20T12:55:13;1.00;;;1.00;;
66189;SDS011;52992;52.084;5.412;2023-07-20T12:57:40;1.10;;;1.10;;
66189;SDS011;52992;52.084;5.412;2023-07-20T13:00:09;1.13;;;0.90;;
66189;SDS011;52992;52.084;5.412;2023-07-20T13:02:38;1.20;;;1.00;;
66189;SDS011;52992;52.084;5.412;2023-07-20T13:05:06;1.30;;;0.90;;
66189;SDS011;52992;52.084;5.412;2023-07-20T13:07:34;0.97;;;0.97;;
66189;SDS011;52992;52.084;5.412;2023-07-20T13:10:06;2.70;;;1.03;;
66189;SDS011;52992;52.084;5.412;2023-07-20T13:12:34;1.47;;;1.20;;
66189;SDS011;52992;52.084;5.412;2023-07-20T13:15:02;0.90;;;0.90;;
66189;SDS011;52992;52.084;5.412;2023-07-20T13:17:34;1.30;;;1.20;;
66189;SDS011;52992;52.084;5.412;2023-07-20T13:20:02;1.27;;;1.17;;
66189;SDS011;52992;52.084;5.412;2023-07-20T13:22:34;1.57;;;1.13;;
66189;SDS011;52992;52.084;5.412;2023-07-20T13:25:01;1.43;;;1.33;;
66189;SDS011;52992;52.084;5.412;2023-07-20T13:27:29;1.33;;;1.20;;
66189;SDS011;52992;52.084;5.412;2023-07-20T13:29:58;3.73;;;1.60;;
66189;SDS011;52992;52.084;5.412;2023-07-20T13:32:29;2.73;;;2.00;;
66189;SDS011;52992;52.084;5.412;2023-07-20T13:35:00;2.20;;;2.00;;
66189;SDS011;52992;52.084;5.412;2023-07-20T13:37:28;3.33;;;1.80;;
66189;SDS011;52992;52.084;5.412;2023-07-20T13:39:55;1.13;;;1.13;;
66189;SDS011;52992;52.084;5.412;2023-07-20T13:42:23;1.60;;;1.30;;
66189;SDS011;52992;52.084;5.412;2023-07-20T13:44:50;1.33;;;1.17;;
66189;SDS011;52992;52.084;5.412;2023-07-20T13:47:17;0.90;;;0.90;;
66189;SDS011;52992;52.084;5.412;2023-07-20T13:49:48;1.67;;;1.40;;
66189;SDS011;52992;52.084;5.412;2023-07-20T13:52:29;1.27;;;1.17;;
66189;SDS011;52992;52.084;5.412;2023-07-20T13:54:59;2.63;;;1.17;;
66189;SDS011;52992;52.084;5.412;2023-07-20T13:57:31;1.70;;;1.20;;
66189;SDS011;52992;52.084;5.412;2023-07-20T14:00:01;1.90;;;1.23;;
66189;SDS011;52992;52.084;5.412;2023-07-20T14:02:37;1.10;;;1.03;;
66189;SDS011;52992;52.084;5.412;2023-07-20T14:05:07;2.40;;;1.20;;
66189;SDS011;52992;52.084;5.412;2023-07-20T14:07:39;1.40;;;1.30;;
66189;SDS011;52992;52.084;5.412;2023-07-20T14:10:06;1.90;;;1.10;;
66189;SDS011;52992;52.084;5.412;2023-07-20T14:12:37;1.20;;;1.10;;
66189;SDS011;52992;52.084;5.412;2023-07-20T14:15:04;1.20;;;1.10;;
66189;SDS011;52992;52.084;5.412;2023-07-20T14:17:31;1.30;;;1.20;;
66189;SDS011;52992;52.084;5.412;2023-07-20T14:19:59;1.67;;;1.20;;
66189;SDS011;52992;52.084;5.412;2023-07-20T14:22:47;2.03;;;1.00;;
66189;SDS011;52992;52.084;5.412;2023-07-20T14:25:17;1.10;;;1.10;;
66189;SDS011;52992;52.084;5.412;2023-07-20T14:27:45;1.20;;;1.20;;
66189;SDS011;52992;52.084;5.412;2023-07-20T14:30:13;1.10;;;1.10;;
66189;SDS011;52992;52.084;5.412;2023-07-20T14:32:40;1.63;;;1.23;;
66189;SDS011;52992;52.084;5.412;2023-07-20T14:35:08;1.40;;;1.30;;
66189;SDS011;52992;52.084;5.412;2023-07-20T14:37:36;1.30;;;1.20;;
66189;SDS011;52992;52.084;5.412;2023-07-20T14:40:04;1.70;;;1.30;;
66189;SDS011;52992;52.084;5.412;2023-07-20T14:42:34;2.47;;;1.20;;
66189;SDS011;52992;52.084;5.412;2023-07-20T14:45:02;1.23;;;0.90;;
66189;SDS011;52992;52.084;5.412;2023-07-20T14:47:29;1.23;;;1.17;;
66189;SDS011;52992;52.084;5.412;2023-07-20T14:49:58;2.00;;;1.80;;
66189;SDS011;52992;52.084;5.412;2023-07-20T14:52:26;1.30;;;1.23;;
66189;SDS011;52992;52.084;5.412;2023-07-20T14:54:55;2.50;;;1.60;;
66189;SDS011;52992;52.084;5.412;2023-07-20T14:57:22;1.80;;;1.13;;
66189;SDS011;52992;52.084;5.412;2023-07-20T14:59:50;2.00;;;1.33;;
66189;SDS011;52992;52.084;5.412;2023-07-20T15:02:17;0.80;;;0.80;;
66189;SDS011;52992;52.084;5.412;2023-07-20T15:04:48;2.20;;;1.10;;
66189;SDS011;52992;52.084;5.412;2023-07-20T15:07:16;1.07;;;1.07;;
66189;SDS011;52992;52.084;5.412;2023-07-20T15:09:54;1.50;;;1.10;;
66189;SDS011;52992;52.084;5.412;2023-07-20T15:12:21;2.83;;;1.20;;
66189;SDS011;52992;52.084;5.412;2023-07-20T15:14:50;1.20;;;1.20;;
66189;SDS011;52992;52.084;5.412;2023-07-20T15:17:34;1.50;;;1.40;;
66189;SDS011;52992;52.084;5.412;2023-07-20T15:20:03;1.77;;;1.47;;
66189;SDS011;52992;52.084;5.412;2023-07-20T15:22:32;1.30;;;1.20;;